createdAt,value
2023-04-08T00:00:50.300Z,11.23
2023-04-08T00:03:54.217Z,11.90
2023-04-08T00:06:58.004Z,10.87
2023-04-08T00:10:01.604Z,10.30
2023-04-08T00:13:07.099Z,9.87
2023-04-08T00:16:10.762Z,10.57
2023-04-08T00:19:14.420Z,10.57
2023-04-08T00:22:18.033Z,12.73
2023-04-08T00:25:24.093Z,11.33
2023-04-08T00:28:30.905Z,10.57
2023-04-08T00:31:34.592Z,12.30
2023-04-08T00:34:38.773Z,14.70
2023-04-08T00:37:42.888Z,15.93
2023-04-08T00:40:46.590Z,15.83
2023-04-08T00:43:51.693Z,14.33
2023-04-08T00:46:56.023Z,12.83
2023-04-08T00:49:59.815Z,12.47
2023-04-08T00:53:03.438Z,12.50
2023-04-08T00:56:07.174Z,12.73
2023-04-08T00:59:12.487Z,12.60
2023-04-08T01:02:20.811Z,13.10
2023-04-08T01:05:32.584Z,12.63
2023-04-08T01:08:39.919Z,11.53
2023-04-08T01:11:46.146Z,12.13
2023-04-08T01:14:57.765Z,12.70
2023-04-08T01:18:03.365Z,12.10
2023-04-08T01:21:09.151Z,12.70
2023-04-08T01:24:21.150Z,12.87
2023-04-08T01:27:27.314Z,13.10
2023-04-08T01:30:32.280Z,12.77
2023-04-08T01:33:37.153Z,12.47
2023-04-08T01:36:42.187Z,12.23
2023-04-08T01:39:47.213Z,13.20
2023-04-08T01:42:55.801Z,13.37
2023-04-08T01:46:00.969Z,12.87
2023-04-08T01:49:06.144Z,13.27
2023-04-08T01:52:13.071Z,13.60
2023-04-08T01:55:17.086Z,13.20
2023-04-08T01:58:24.302Z,14.37
2023-04-08T02:01:31.101Z,14.00
2023-04-08T02:04:35.731Z,14.67
2023-04-08T02:07:39.354Z,14.73
2023-04-08T02:10:42.999Z,14.23
2023-04-08T02:13:48.225Z,14.53
2023-04-08T02:16:55.014Z,14.53
2023-04-08T02:20:05.094Z,13.83
2023-04-08T02:23:15.379Z,15.13
2023-04-08T02:26:21.118Z,14.73
2023-04-08T02:29:27.747Z,15.27
2023-04-08T02:32:34.111Z,14.93
2023-04-08T02:35:38.603Z,14.23
2023-04-08T02:38:49.906Z,15.10
2023-04-08T02:41:53.936Z,15.63
2023-04-08T02:45:00.498Z,14.30
2023-04-08T02:48:04.086Z,15.33
2023-04-08T02:51:08.586Z,15.67
2023-04-08T02:54:12.197Z,15.60
2023-04-08T02:57:17.309Z,16.27
2023-04-08T03:00:22.473Z,15.60
2023-04-08T03:03:29.836Z,16.27
2023-04-08T03:06:33.679Z,16.30
2023-04-08T03:09:37.308Z,15.97
2023-04-08T03:12:40.934Z,15.53
2023-04-08T03:15:46.587Z,16.70
2023-04-08T03:18:52.086Z,16.13
2023-04-08T03:21:55.970Z,16.47
2023-04-08T03:24:59.711Z,16.80
2023-04-08T03:28:03.359Z,16.53
2023-04-08T03:31:08.655Z,16.30
2023-04-08T03:34:12.338Z,15.80
2023-04-08T03:37:15.946Z,13.83
2023-04-08T03:40:19.891Z,15.90
2023-04-08T03:43:23.445Z,15.53
2023-04-08T03:46:28.788Z,17.40
2023-04-08T03:49:32.558Z,17.03
2023-04-08T03:52:36.222Z,16.73
2023-04-08T03:55:39.922Z,17.60
2023-04-08T03:58:43.538Z,17.93
2023-04-08T04:01:48.969Z,17.97
2023-04-08T04:04:52.737Z,17.17
2023-04-08T04:07:56.478Z,17.10
2023-04-08T04:11:00.576Z,17.83
2023-04-08T04:14:04.333Z,16.73
2023-04-08T04:17:09.442Z,18.20
2023-04-08T04:20:14.048Z,19.07
2023-04-08T04:23:17.662Z,17.33
2023-04-08T04:26:22.115Z,16.30
2023-04-08T04:29:26.169Z,18.20
2023-04-08T04:32:31.417Z,19.87
2023-04-08T04:35:35.596Z,18.13
2023-04-08T04:38:39.365Z,18.30
2023-04-08T04:41:44.557Z,17.03
2023-04-08T04:44:48.211Z,18.27
2023-04-08T04:47:53.265Z,19.40
2023-04-08T04:50:57.506Z,18.57
2023-04-08T04:54:01.306Z,19.57
2023-04-08T04:57:05.050Z,19.77
2023-04-08T05:00:09.982Z,20.07
2023-04-08T05:03:15.610Z,21.33
2023-04-08T05:06:19.467Z,19.50
2023-04-08T05:09:23.352Z,19.80
2023-04-08T05:12:28.351Z,19.00
2023-04-08T05:15:32.180Z,19.70
2023-04-08T05:18:37.473Z,19.27
2023-04-08T05:21:41.374Z,19.27
2023-04-08T05:24:45.352Z,20.10
2023-04-08T05:27:49.067Z,19.87
2023-04-08T05:30:53.541Z,21.50
2023-04-08T05:33:58.913Z,20.80
2023-04-08T05:37:02.697Z,20.77
2023-04-08T05:40:07.858Z,20.47
2023-04-08T05:43:11.834Z,20.80
2023-04-08T05:46:15.788Z,20.67
2023-04-08T05:49:21.444Z,20.53
2023-04-08T05:52:25.164Z,20.83
2023-04-08T05:55:29.309Z,21.83
2023-04-08T05:58:33.139Z,22.77
2023-04-08T06:01:37.031Z,21.77
2023-04-08T06:04:42.649Z,22.67
2023-04-08T06:07:46.870Z,20.97
2023-04-08T06:10:51.727Z,23.10
2023-04-08T06:13:55.637Z,21.83
2023-04-08T06:16:59.357Z,22.33
2023-04-08T06:20:05.133Z,23.40
2023-04-08T06:23:08.875Z,22.70
2023-04-08T06:26:13.583Z,21.30
2023-04-08T06:29:17.413Z,23.17
2023-04-08T06:32:21.303Z,23.40
2023-04-08T06:35:26.561Z,24.63
2023-04-08T06:38:30.373Z,22.17
2023-04-08T06:41:34.277Z,23.70
2023-04-08T06:44:52.349Z,23.83
2023-04-08T06:47:57.385Z,20.93
2023-04-08T06:51:03.038Z,21.63
2023-04-08T06:54:06.857Z,24.30
2023-04-08T06:57:10.805Z,22.10
2023-04-08T07:00:15.487Z,20.53
2023-04-08T07:03:19.358Z,21.00
2023-04-08T07:06:24.797Z,21.07
2023-04-08T07:09:28.986Z,19.73
2023-04-08T07:12:32.789Z,20.27
2023-04-08T07:15:36.710Z,21.47
2023-04-08T07:18:41.805Z,19.93
2023-04-08T07:21:47.177Z,21.33
2023-04-08T07:24:51.033Z,20.13
2023-04-08T07:27:54.853Z,20.27
2023-04-08T07:30:58.820Z,20.00
2023-04-08T07:34:02.717Z,19.00
2023-04-08T07:37:08.031Z,20.63
2023-04-08T07:40:12.697Z,19.70
2023-04-08T07:43:16.573Z,18.73
2023-04-08T07:46:20.815Z,19.07
2023-04-08T07:49:24.714Z,19.53
2023-04-08T07:52:31.613Z,19.40
2023-04-08T07:55:35.842Z,19.00
2023-04-08T07:58:40.777Z,18.70
2023-04-08T08:01:45.086Z,19.07
2023-04-08T08:04:48.935Z,18.73
2023-04-08T08:07:54.205Z,18.57
2023-04-08T08:10:58.076Z,19.20
2023-04-08T08:14:01.977Z,18.83
2023-04-08T08:17:05.884Z,18.67
2023-04-08T08:20:10.721Z,19.37
2023-04-08T08:23:16.079Z,17.97
2023-04-08T08:26:20.003Z,19.13
2023-04-08T08:29:23.957Z,20.73
2023-04-08T08:32:27.864Z,19.90
2023-04-08T08:35:31.797Z,19.90
2023-04-08T08:38:37.166Z,19.07
2023-04-08T08:41:42.467Z,20.27
2023-04-08T08:44:46.661Z,19.47
2023-04-08T08:47:51.647Z,19.50
2023-04-08T08:50:55.564Z,18.20
2023-04-08T08:54:04.509Z,17.33
2023-04-08T08:57:18.877Z,18.40
2023-04-08T09:00:34.574Z,17.77
2023-04-08T09:03:39.135Z,18.47
2023-04-08T09:06:44.214Z,17.17
2023-04-08T09:09:53.021Z,17.67
2023-04-08T09:12:57.915Z,18.47
2023-04-08T09:16:06.635Z,16.27
2023-04-08T09:19:12.191Z,17.60
2023-04-08T09:22:16.213Z,17.33
2023-04-08T09:25:27.180Z,18.07
2023-04-08T09:28:32.038Z,16.40
2023-04-08T09:31:38.610Z,16.23
2023-04-08T09:34:42.507Z,14.67
2023-04-08T09:37:48.254Z,14.97
2023-04-08T09:40:54.945Z,15.50
2023-04-08T09:44:00.985Z,13.97
2023-04-08T09:47:12.098Z,16.03
2023-04-08T09:50:18.434Z,14.63
2023-04-08T09:53:27.757Z,14.80
2023-04-08T09:56:42.485Z,14.40
2023-04-08T09:59:56.916Z,14.00
2023-04-08T10:03:12.108Z,13.70
2023-04-08T10:06:17.172Z,13.60
2023-04-08T10:09:21.588Z,15.30
2023-04-08T10:12:26.741Z,14.20
2023-04-08T10:15:31.589Z,14.07
2023-04-08T10:18:35.648Z,14.80
2023-04-08T10:21:43.538Z,15.30
2023-04-08T10:25:33.464Z,15.90
2023-04-08T10:28:38.753Z,16.47
2023-04-08T10:31:42.885Z,15.73
2023-04-08T10:34:55.116Z,14.67
2023-04-08T10:37:59.518Z,17.80
2023-04-08T10:41:03.349Z,17.00
2023-04-08T10:44:17.712Z,15.33
2023-04-08T10:47:27.834Z,13.70
2023-04-08T10:50:32.715Z,24.30
2023-04-08T10:53:38.593Z,22.30
2023-04-08T10:56:49.870Z,21.50
2023-04-08T10:59:55.324Z,16.27
2023-04-08T11:03:02.787Z,15.70
2023-04-08T11:06:07.802Z,17.03
2023-04-08T11:09:12.369Z,16.33
2023-04-08T11:12:19.088Z,14.90
2023-04-08T11:15:25.789Z,16.00
2023-04-08T11:18:30.120Z,16.30
2023-04-08T11:21:36.802Z,15.70
2023-04-08T11:24:41.357Z,15.77
2023-04-08T11:27:45.407Z,15.80
2023-04-08T11:30:51.129Z,15.90
2023-04-08T11:33:57.055Z,15.50
2023-04-08T11:37:00.848Z,15.53
2023-04-08T11:40:07.998Z,15.53
2023-04-08T11:43:12.571Z,14.60
2023-04-08T11:46:18.020Z,14.03
2023-04-08T11:49:21.843Z,14.03
2023-04-08T11:52:41.852Z,13.80
2023-04-08T11:55:45.796Z,13.63
2023-04-08T11:58:50.176Z,14.03
2023-04-08T12:01:55.517Z,13.23
2023-04-08T12:04:59.357Z,12.30
2023-04-08T12:08:03.702Z,12.80
2023-04-08T12:11:19.202Z,12.97
2023-04-08T12:14:28.194Z,13.47
2023-04-08T12:17:33.897Z,13.53
2023-04-08T12:20:37.771Z,13.97
2023-04-08T12:23:41.846Z,13.27
2023-04-08T12:26:45.730Z,11.57
2023-04-08T12:29:50.112Z,12.47
2023-04-08T12:32:55.681Z,11.33
2023-04-08T12:35:59.816Z,11.33
2023-04-08T12:39:03.705Z,11.50
2023-04-08T12:42:07.626Z,14.00
2023-04-08T12:45:11.889Z,10.87
2023-04-08T12:48:17.267Z,12.73
2023-04-08T12:51:21.232Z,11.10
2023-04-08T12:54:25.174Z,10.83
2023-04-08T12:57:29.026Z,10.93
2023-04-08T13:00:32.928Z,11.13
2023-04-08T13:03:39.663Z,13.20
2023-04-08T13:06:43.526Z,12.17
2023-04-08T13:09:47.828Z,10.80
2023-04-08T13:12:51.685Z,10.53
2023-04-08T13:15:55.563Z,9.40
2023-04-08T13:19:00.781Z,10.23
2023-04-08T13:22:04.565Z,10.00
2023-04-08T13:25:08.986Z,10.03
2023-04-08T13:28:12.896Z,10.17
2023-04-08T13:31:16.848Z,9.90
2023-04-08T13:34:22.304Z,9.57
2023-04-08T13:37:26.148Z,8.93
2023-04-08T13:40:30.413Z,9.37
2023-04-08T13:43:34.282Z,8.87
2023-04-08T13:46:38.075Z,7.93
2023-04-08T13:49:43.414Z,7.83
2023-04-08T13:52:47.597Z,7.00
2023-04-08T13:55:55.266Z,7.53
2023-04-08T13:58:59.467Z,8.30
2023-04-08T14:02:04.046Z,8.20
2023-04-08T14:05:10.639Z,7.40
2023-04-08T14:08:14.681Z,7.40
2023-04-08T14:11:18.467Z,6.50
2023-04-08T14:14:22.338Z,6.07
2023-04-08T14:17:26.252Z,5.50
2023-04-08T14:20:32.187Z,5.83
2023-04-08T14:23:36.132Z,4.40
2023-04-08T14:26:39.961Z,5.50
2023-04-08T14:29:43.775Z,5.13
2023-04-08T14:32:47.611Z,4.97
2023-04-08T14:35:54.444Z,3.83
2023-04-08T14:38:58.338Z,4.37
2023-04-08T14:42:02.408Z,5.53
2023-04-08T14:45:06.838Z,5.20
2023-04-08T14:48:10.672Z,5.30
2023-04-08T14:51:16.040Z,5.70
2023-04-08T14:54:20.360Z,5.93
2023-04-08T14:57:24.142Z,5.50
2023-04-08T15:00:28.198Z,5.33
2023-04-08T15:03:32.047Z,4.60
2023-04-08T15:06:39.270Z,4.90
2023-04-08T15:09:43.295Z,5.10
2023-04-08T15:12:47.050Z,4.87
2023-04-08T15:15:50.914Z,4.80
2023-04-08T15:18:55.385Z,5.30
2023-04-08T15:22:00.690Z,5.00
2023-04-08T15:25:05.694Z,4.67
2023-04-08T15:28:10.082Z,3.97
2023-04-08T15:31:14.158Z,4.20
2023-04-08T15:34:18.096Z,4.10
2023-04-08T15:37:24.080Z,4.13
2023-04-08T15:40:28.106Z,4.87
2023-04-08T15:43:31.966Z,4.77
2023-04-08T15:46:37.467Z,4.77
2023-04-08T15:49:41.796Z,5.13
2023-04-08T15:52:47.193Z,5.80
2023-04-08T15:55:51.124Z,5.67
2023-04-08T15:58:55.043Z,6.13
2023-04-08T16:01:59.001Z,6.00
2023-04-08T16:05:03.132Z,5.43
2023-04-08T16:08:08.547Z,5.70
2023-04-08T16:11:12.532Z,5.43
2023-04-08T16:14:16.706Z,5.37
2023-04-08T16:17:20.491Z,6.27
2023-04-08T16:20:24.340Z,5.70
2023-04-08T16:23:30.022Z,6.17
2023-04-08T16:26:34.512Z,7.17
2023-04-08T16:29:38.537Z,6.90
2023-04-08T16:32:42.422Z,8.57
2023-04-08T16:35:46.769Z,8.60
2023-04-08T16:38:53.930Z,6.97
2023-04-08T16:41:57.775Z,8.70
2023-04-08T16:45:01.816Z,7.90
2023-04-08T16:48:05.964Z,8.83
2023-04-08T16:51:10.007Z,8.27
2023-04-08T16:54:15.386Z,9.03
2023-04-08T16:57:19.396Z,8.57
2023-04-08T17:00:23.517Z,8.70
2023-04-08T17:03:27.582Z,8.37
2023-04-08T17:06:31.595Z,8.57
2023-04-08T17:09:37.380Z,8.67
2023-04-08T17:12:41.945Z,8.33
2023-04-08T17:15:45.751Z,7.80
2023-04-08T17:18:49.756Z,7.90
2023-04-08T17:21:53.772Z,8.17
2023-04-08T17:24:59.142Z,8.53
2023-04-08T17:28:03.052Z,8.53
2023-04-08T17:31:06.970Z,8.17
2023-04-08T17:34:10.863Z,10.00
2023-04-08T17:37:14.761Z,8.07
2023-04-08T17:40:20.439Z,8.40
2023-04-08T17:43:24.260Z,11.00
2023-04-08T17:46:28.247Z,14.30
2023-04-08T17:49:32.183Z,13.50
2023-04-08T17:52:36.068Z,12.93
2023-04-08T17:55:41.494Z,11.33
2023-04-08T17:58:48.474Z,11.20
2023-04-08T18:01:52.330Z,10.70
2023-04-08T18:04:56.336Z,9.90
2023-04-08T18:08:00.135Z,8.87
2023-04-08T18:11:07.793Z,9.17
2023-04-08T18:14:12.837Z,11.20
2023-04-08T18:17:16.756Z,8.77
2023-04-08T18:20:20.861Z,8.87
2023-04-08T18:23:24.814Z,9.20
2023-04-08T18:26:30.023Z,8.83
2023-04-08T18:29:34.008Z,9.43
2023-04-08T18:32:37.799Z,9.47
2023-04-08T18:35:41.968Z,9.47
2023-04-08T18:38:46.143Z,9.67
2023-04-08T18:41:51.278Z,9.57
2023-04-08T18:44:55.180Z,10.13
2023-04-08T18:47:59.250Z,9.50
2023-04-08T18:51:03.080Z,9.33
2023-04-08T18:54:06.948Z,8.63
2023-04-08T18:57:12.439Z,9.33
2023-04-08T19:00:16.722Z,8.57
2023-04-08T19:03:20.993Z,9.20
2023-04-08T19:06:24.919Z,12.33
2023-04-08T19:09:28.775Z,20.07
2023-04-08T19:12:34.176Z,24.33
2023-04-08T19:15:38.043Z,27.10
2023-04-08T19:18:41.898Z,24.73
2023-04-08T19:21:45.668Z,24.13
2023-04-08T19:24:49.581Z,28.00
2023-04-08T19:27:54.825Z,31.23
2023-04-08T19:30:58.776Z,29.03
2023-04-08T19:34:02.642Z,25.13
2023-04-08T19:37:06.789Z,26.00
2023-04-08T19:40:11.674Z,26.17
2023-04-08T19:43:17.932Z,19.13
2023-04-08T19:46:21.819Z,18.13
2023-04-08T19:49:25.890Z,18.70
2023-04-08T19:52:29.646Z,14.40
2023-04-08T19:55:33.644Z,10.00
2023-04-08T19:58:39.007Z,8.50
2023-04-08T20:01:42.966Z,7.87
2023-04-08T20:04:47.049Z,7.70
2023-04-08T20:07:51.066Z,7.33
2023-04-08T20:10:54.882Z,7.50
2023-04-08T20:14:00.508Z,6.73
2023-04-08T20:17:04.726Z,6.87
2023-04-08T20:20:09.842Z,6.70
2023-04-08T20:23:13.922Z,6.30
2023-04-08T20:26:17.862Z,6.93
2023-04-08T20:29:23.244Z,5.97
2023-04-08T20:32:28.150Z,7.37
2023-04-08T20:35:32.004Z,7.13
2023-04-08T20:38:37.143Z,6.33
2023-04-08T20:41:40.925Z,6.90
2023-04-08T20:44:46.274Z,7.10
2023-04-08T20:47:50.151Z,6.90
2023-04-08T20:50:54.009Z,6.90
2023-04-08T20:53:57.776Z,6.23
2023-04-08T20:57:01.619Z,6.90
2023-04-08T21:00:07.858Z,6.40
2023-04-08T21:03:11.798Z,6.73
2023-04-08T21:06:18.937Z,7.23
2023-04-08T21:09:22.724Z,6.33
2023-04-08T21:12:26.506Z,6.63
2023-04-08T21:15:32.019Z,7.00
2023-04-08T21:18:36.342Z,6.97
2023-04-08T21:21:40.229Z,6.73
2023-04-08T21:24:44.096Z,6.43
2023-04-08T21:27:47.969Z,6.67
2023-04-08T21:30:54.425Z,7.40
2023-04-08T21:33:58.304Z,7.67
2023-04-08T21:37:02.311Z,7.13
2023-04-08T21:40:06.879Z,4.03
2023-04-08T21:43:10.667Z,6.93
2023-04-08T21:46:16.065Z,7.00
2023-04-08T21:49:19.973Z,6.83
2023-04-08T21:52:23.880Z,6.37
2023-04-08T21:55:37.796Z,6.40
2023-04-08T21:58:41.574Z,6.20
2023-04-08T22:01:46.858Z,7.33
2023-04-08T22:04:50.914Z,6.87
2023-04-08T22:07:55.337Z,6.37
2023-04-08T22:10:59.279Z,6.97
2023-04-08T22:14:03.085Z,6.77
2023-04-08T22:17:08.517Z,6.80
2023-04-08T22:20:13.351Z,7.33
2023-04-08T22:23:17.196Z,6.60
2023-04-08T22:26:21.581Z,7.00
2023-04-08T22:29:25.389Z,6.97
2023-04-08T22:32:30.726Z,7.23
2023-04-08T22:35:34.679Z,7.70
2023-04-08T22:38:38.511Z,7.13
2023-04-08T22:41:42.286Z,7.43
2023-04-08T22:44:46.233Z,6.83
2023-04-08T22:47:51.458Z,7.97
2023-04-08T22:50:55.189Z,7.10
2023-04-08T22:53:59.020Z,7.07
2023-04-08T22:57:03.331Z,7.30
2023-04-08T23:00:08.308Z,7.10
2023-04-08T23:03:13.449Z,8.43
2023-04-08T23:06:17.379Z,7.70
2023-04-08T23:09:23.936Z,7.43
2023-04-08T23:12:27.523Z,8.23
2023-04-08T23:15:31.328Z,7.63
2023-04-08T23:18:36.608Z,7.27
2023-04-08T23:21:40.654Z,7.87
2023-04-08T23:24:44.853Z,7.30
2023-04-08T23:27:48.496Z,7.90
2023-04-08T23:30:52.232Z,7.90
2023-04-08T23:33:57.389Z,8.23
2023-04-08T23:37:01.141Z,6.43
2023-04-08T23:40:04.938Z,7.57
2023-04-08T23:43:08.674Z,7.53
2023-04-08T23:46:12.295Z,6.10
2023-04-08T23:49:17.528Z,6.33
2023-04-08T23:52:21.178Z,6.87
2023-04-08T23:55:24.864Z,8.27
2023-04-08T23:58:28.562Z,7.83
